Kismet, Kansas
Current Conditions -  °F | °C
As of 3:15 AM on Sunday 21 Dec 2014 (Local Time) from KLBL Reporting Station
Clear Clear  
Wind Chill: 24°   Ceiling: Unl
Heat Index: 30°   Visibility: 5mi
Dew Point: 27°   Wind: 6mph
Humidity: 86%   Direction: 150°SSE
Pressure: 29.93"   Gusts: NA
Location:  37.21°N, 100.7°W
Report Text: KLBL 210915Z AUTO 15005KT 5SM CLR M01/M03 A2993 RMK AO1
Loading
Personal Weather Stations






























Interactive Weather Map New forecast layout! Learn more

10-Day Weather Forecast

Advertisements
Track Severe Weather on mobile